sensor_id;sensor_type;location;lat;lon;timestamp;temperature;humidity
19172;DHT22;9718;52.200;21.052;2023-03-01T00:01:17;-1.40;99.90
19172;DHT22;9718;52.200;21.052;2023-03-01T00:03:46;-1.40;99.90
19172;DHT22;9718;52.200;21.052;2023-03-01T00:06:14;-1.40;99.90
19172;DHT22;9718;52.200;21.052;2023-03-01T00:08:41;-1.40;99.90
19172;DHT22;9718;52.200;21.052;2023-03-01T00:11:16;-1.40;99.90
19172;DHT22;9718;52.200;21.052;2023-03-01T00:13:44;-1.40;99.90
19172;DHT22;9718;52.200;21.052;2023-03-01T00:16:18;-1.40;99.90
19172;DHT22;9718;52.200;21.052;2023-03-01T00:18:46;-1.50;99.90
19172;DHT22;9718;52.200;21.052;2023-03-01T00:21:14;-1.50;99.90
19172;DHT22;9718;52.200;21.052;2023-03-01T00:23:41;-1.60;99.90
19172;DHT22;9718;52.200;21.052;2023-03-01T00:26:11;-1.60;99.90
19172;DHT22;9718;52.200;21.052;2023-03-01T00:28:38;-1.60;99.90
19172;DHT22;9718;52.200;21.052;2023-03-01T00:31:08;-1.60;99.90
19172;DHT22;9718;52.200;21.052;2023-03-01T00:33:35;-1.70;99.90
19172;DHT22;9718;52.200;21.052;2023-03-01T00:36:03;-1.70;99.90
19172;DHT22;9718;52.200;21.052;2023-03-01T00:38:35;-1.60;99.90
19172;DHT22;9718;52.200;21.052;2023-03-01T00:41:04;-1.60;99.90
19172;DHT22;9718;52.200;21.052;2023-03-01T00:43:31;-1.60;99.90
19172;DHT22;9718;52.200;21.052;2023-03-01T00:46:09;-1.70;99.90
19172;DHT22;9718;52.200;21.052;2023-03-01T00:48:37;-1.70;99.90
19172;DHT22;9718;52.200;21.052;2023-03-01T00:51:09;-1.70;99.90
19172;DHT22;9718;52.200;21.052;2023-03-01T00:53:37;-1.70;99.90
19172;DHT22;9718;52.200;21.052;2023-03-01T00:56:06;-1.70;99.90
19172;DHT22;9718;52.200;21.052;2023-03-01T00:58:34;-1.70;99.90
19172;DHT22;9718;52.200;21.052;2023-03-01T01:01:16;-1.80;99.90
19172;DHT22;9718;52.200;21.052;2023-03-01T01:03:54;-1.70;99.90
19172;DHT22;9718;52.200;21.052;2023-03-01T01:06:24;-1.70;99.90
19172;DHT22;9718;52.200;21.052;2023-03-01T01:08:52;-1.70;99.90
19172;DHT22;9718;52.200;21.052;2023-03-01T01:11:22;-1.80;99.90
19172;DHT22;9718;52.200;21.052;2023-03-01T01:13:50;-1.70;99.90
19172;DHT22;9718;52.200;21.052;2023-03-01T01:16:19;-1.60;99.90
19172;DHT22;9718;52.200;21.052;2023-03-01T01:18:47;-1.60;99.90
19172;DHT22;9718;52.200;21.052;2023-03-01T01:21:18;-1.60;99.90
19172;DHT22;9718;52.200;21.052;2023-03-01T01:23:46;-1.60;99.90
19172;DHT22;9718;52.200;21.052;2023-03-01T01:26:17;-1.60;99.90
19172;DHT22;9718;52.200;21.052;2023-03-01T01:28:45;-1.60;99.90
19172;DHT22;9718;52.200;21.052;2023-03-01T01:31:12;-1.50;99.90
19172;DHT22;9718;52.200;21.052;2023-03-01T01:33:40;-1.60;99.90
19172;DHT22;9718;52.200;21.052;2023-03-01T01:36:08;-1.50;99.90
19172;DHT22;9718;52.200;21.052;2023-03-01T01:38:36;-1.50;99.90
19172;DHT22;9718;52.200;21.052;2023-03-01T01:41:04;-1.50;99.90
19172;DHT22;9718;52.200;21.052;2023-03-01T01:43:38;-1.50;99.90
19172;DHT22;9718;52.200;21.052;2023-03-01T01:46:32;-1.50;99.90
19172;DHT22;9718;52.200;21.052;2023-03-01T01:49:04;-1.50;99.90
19172;DHT22;9718;52.200;21.052;2023-03-01T01:51:39;-1.50;99.90
19172;DHT22;9718;52.200;21.052;2023-03-01T01:54:16;-1.50;99.90
19172;DHT22;9718;52.200;21.052;2023-03-01T01:56:52;-1.50;99.90
19172;DHT22;9718;52.200;21.052;2023-03-01T01:59:20;-1.60;99.90
19172;DHT22;9718;52.200;21.052;2023-03-01T02:01:52;-1.60;99.90
19172;DHT22;9718;52.200;21.052;2023-03-01T02:04:20;-1.50;99.90
19172;DHT22;9718;52.200;21.052;2023-03-01T02:06:54;-1.60;99.90
19172;DHT22;9718;52.200;21.052;2023-03-01T02:09:24;-1.60;99.90
19172;DHT22;9718;52.200;21.052;2023-03-01T02:11:53;-1.50;99.90
19172;DHT22;9718;52.200;21.052;2023-03-01T02:14:20;-1.40;99.90
19172;DHT22;9718;52.200;21.052;2023-03-01T02:16:48;-1.40;99.90
19172;DHT22;9718;52.200;21.052;2023-03-01T02:19:39;-1.50;99.90
19172;DHT22;9718;52.200;21.052;2023-03-01T02:22:20;-1.60;99.90
19172;DHT22;9718;52.200;21.052;2023-03-01T02:25:12;-1.60;99.90
19172;DHT22;9718;52.200;21.052;2023-03-01T02:30:20;-1.50;99.90
19172;DHT22;9718;52.200;21.052;2023-03-01T02:32:48;-1.60;99.90
19172;DHT22;9718;52.200;21.052;2023-03-01T02:35:17;-1.50;99.90
19172;DHT22;9718;52.200;21.052;2023-03-01T02:37:46;-1.60;99.90
19172;DHT22;9718;52.200;21.052;2023-03-01T02:40:17;-1.60;99.90
19172;DHT22;9718;52.200;21.052;2023-03-01T02:42:54;-1.60;99.90
19172;DHT22;9718;52.200;21.052;2023-03-01T02:45:23;-1.70;99.90
19172;DHT22;9718;52.200;21.052;2023-03-01T02:47:54;-1.60;99.90
19172;DHT22;9718;52.200;21.052;2023-03-01T02:53:03;-1.70;99.90
19172;DHT22;9718;52.200;21.052;2023-03-01T02:55:33;-1.70;99.90
19172;DHT22;9718;52.200;21.052;2023-03-01T02:58:02;-1.70;99.90
19172;DHT22;9718;52.200;21.052;2023-03-01T03:00:41;-1.70;99.90
19172;DHT22;9718;52.200;21.052;2023-03-01T03:03:14;-1.70;99.90
19172;DHT22;9718;52.200;21.052;2023-03-01T03:05:42;-1.80;99.90
19172;DHT22;9718;52.200;21.052;2023-03-01T03:08:09;-1.70;99.90
19172;DHT22;9718;52.200;21.052;2023-03-01T03:10:39;-1.70;99.90
19172;DHT22;9718;52.200;21.052;2023-03-01T03:13:12;-1.80;99.90
19172;DHT22;9718;52.200;21.052;2023-03-01T03:15:41;-1.90;99.90
19172;DHT22;9718;52.200;21.052;2023-03-01T03:18:14;-1.90;99.90
19172;DHT22;9718;52.200;21.052;2023-03-01T03:20:42;-1.90;99.90
19172;DHT22;9718;52.200;21.052;2023-03-01T03:23:10;-1.90;99.90
19172;DHT22;9718;52.200;21.052;2023-03-01T03:25:37;-1.90;99.90
19172;DHT22;9718;52.200;21.052;2023-03-01T03:28:06;-2.00;99.90
19172;DHT22;9718;52.200;21.052;2023-03-01T03:30:39;-1.90;99.90
19172;DHT22;9718;52.200;21.052;2023-03-01T03:33:07;-1.90;99.90
19172;DHT22;9718;52.200;21.052;2023-03-01T03:35:44;-1.90;99.90
19172;DHT22;9718;52.200;21.052;2023-03-01T03:38:14;-1.80;99.90
19172;DHT22;9718;52.200;21.052;2023-03-01T03:41:01;-1.80;99.90
19172;DHT22;9718;52.200;21.052;2023-03-01T03:43:31;-1.80;99.90
19172;DHT22;9718;52.200;21.052;2023-03-01T03:45:59;-1.70;99.90
19172;DHT22;9718;52.200;21.052;2023-03-01T03:48:27;-1.70;99.90
19172;DHT22;9718;52.200;21.052;2023-03-01T03:50:55;-1.60;99.90
19172;DHT22;9718;52.200;21.052;2023-03-01T03:53:25;-1.50;99.90
19172;DHT22;9718;52.200;21.052;2023-03-01T03:55:53;-1.50;99.90
19172;DHT22;9718;52.200;21.052;2023-03-01T03:58:22;-1.60;99.90
19172;DHT22;9718;52.200;21.052;2023-03-01T04:00:52;-1.60;99.90
19172;DHT22;9718;52.200;21.052;2023-03-01T04:03:20;-1.60;99.90
19172;DHT22;9718;52.200;21.052;2023-03-01T04:05:47;-1.50;99.90
19172;DHT22;9718;52.200;21.052;2023-03-01T04:08:14;-1.40;99.90
19172;DHT22;9718;52.200;21.052;2023-03-01T04:10:44;-1.40;99.90
19172;DHT22;9718;52.200;21.052;2023-03-01T04:13:15;-1.40;99.90
19172;DHT22;9718;52.200;21.052;2023-03-01T04:15:42;-1.50;99.90
19172;DHT22;9718;52.200;21.052;2023-03-01T04:18:13;-1.60;99.90
19172;DHT22;9718;52.200;21.052;2023-03-01T04:20:40;-1.60;99.90
19172;DHT22;9718;52.200;21.052;2023-03-01T04:23:10;-1.50;99.90
19172;DHT22;9718;52.200;21.052;2023-03-01T04:25:48;-1.60;99.90
19172;DHT22;9718;52.200;21.052;2023-03-01T04:28:27;-1.50;99.90
19172;DHT22;9718;52.200;21.052;2023-03-01T04:30:56;-1.50;99.90
19172;DHT22;9718;52.200;21.052;2023-03-01T04:33:24;-1.60;99.90
19172;DHT22;9718;52.200;21.052;2023-03-01T04:35:52;-1.50;99.90
19172;DHT22;9718;52.200;21.052;2023-03-01T04:38:20;-1.60;99.90
19172;DHT22;9718;52.200;21.052;2023-03-01T04:40:48;-1.70;99.90
19172;DHT22;9718;52.200;21.052;2023-03-01T04:43:15;-1.60;99.90
19172;DHT22;9718;52.200;21.052;2023-03-01T04:45:42;-1.60;99.90
19172;DHT22;9718;52.200;21.052;2023-03-01T04:48:10;-1.60;99.90
19172;DHT22;9718;52.200;21.052;2023-03-01T04:50:37;-1.70;99.90
19172;DHT22;9718;52.200;21.052;2023-03-01T04:53:04;-1.70;99.90
19172;DHT22;9718;52.200;21.052;2023-03-01T04:55:31;-1.70;99.90
19172;DHT22;9718;52.200;21.052;2023-03-01T04:57:58;-1.70;99.90
19172;DHT22;9718;52.200;21.052;2023-03-01T05:00:25;-1.70;99.90
19172;DHT22;9718;52.200;21.052;2023-03-01T05:02:59;-1.70;99.90
19172;DHT22;9718;52.200;21.052;2023-03-01T05:05:35;-1.60;99.90
19172;DHT22;9718;52.200;21.052;2023-03-01T05:08:05;-1.70;99.90
19172;DHT22;9718;52.200;21.052;2023-03-01T05:10:34;-1.70;99.90
19172;DHT22;9718;52.200;21.052;2023-03-01T05:13:04;-1.70;99.90
19172;DHT22;9718;52.200;21.052;2023-03-01T05:15:31;-1.80;99.90
19172;DHT22;9718;52.200;21.052;2023-03-01T05:18:00;-1.80;99.90
19172;DHT22;9718;52.200;21.052;2023-03-01T05:20:29;-1.70;99.90
19172;DHT22;9718;52.200;21.052;2023-03-01T05:22:59;-1.70;99.90
19172;DHT22;9718;52.200;21.052;2023-03-01T05:25:27;-1.80;99.90
19172;DHT22;9718;52.200;21.052;2023-03-01T05:28:01;-1.80;99.90
19172;DHT22;9718;52.200;21.052;2023-03-01T05:30:34;-1.70;99.90
19172;DHT22;9718;52.200;21.052;2023-03-01T05:33:02;-1.70;99.90
19172;DHT22;9718;52.200;21.052;2023-03-01T05:35:29;-1.70;99.90
19172;DHT22;9718;52.200;21.052;2023-03-01T05:37:59;-1.70;99.90
19172;DHT22;9718;52.200;21.052;2023-03-01T05:40:26;-1.70;99.90
19172;DHT22;9718;52.200;21.052;2023-03-01T05:42:55;-1.70;99.90
19172;DHT22;9718;52.200;21.052;2023-03-01T05:45:24;-1.60;99.90
19172;DHT22;9718;52.200;21.052;2023-03-01T05:47:53;-1.60;99.90
19172;DHT22;9718;52.200;21.052;2023-03-01T05:50:24;-1.60;99.90
19172;DHT22;9718;52.200;21.052;2023-03-01T05:55:24;-1.50;99.90
19172;DHT22;9718;52.200;21.052;2023-03-01T05:57:54;-1.40;99.90
19172;DHT22;9718;52.200;21.052;2023-03-01T06:00:21;-1.40;99.90
19172;DHT22;9718;52.200;21.052;2023-03-01T06:02:50;-1.30;99.90
19172;DHT22;9718;52.200;21.052;2023-03-01T06:05:18;-1.30;99.90
19172;DHT22;9718;52.200;21.052;2023-03-01T06:07:46;-1.20;99.90
19172;DHT22;9718;52.200;21.052;2023-03-01T06:10:14;-1.10;99.90
19172;DHT22;9718;52.200;21.052;2023-03-01T06:12:42;-1.10;99.90
19172;DHT22;9718;52.200;21.052;2023-03-01T06:15:11;-0.90;99.90
19172;DHT22;9718;52.200;21.052;2023-03-01T06:17:40;-0.80;99.90
19172;DHT22;9718;52.200;21.052;2023-03-01T06:20:15;-0.70;99.90
19172;DHT22;9718;52.200;21.052;2023-03-01T06:22:43;-0.70;99.90
19172;DHT22;9718;52.200;21.052;2023-03-01T06:25:12;-0.60;99.90
19172;DHT22;9718;52.200;21.052;2023-03-01T06:27:41;-0.50;99.90
19172;DHT22;9718;52.200;21.052;2023-03-01T06:30:11;-0.40;99.90
19172;DHT22;9718;52.200;21.052;2023-03-01T06:32:39;-0.40;99.90
19172;DHT22;9718;52.200;21.052;2023-03-01T06:35:13;-0.30;99.90
19172;DHT22;9718;52.200;21.052;2023-03-01T06:37:41;-0.10;99.90
19172;DHT22;9718;52.200;21.052;2023-03-01T06:40:10;0.00;99.90
19172;DHT22;9718;52.200;21.052;2023-03-01T06:42:40;0.20;99.90
19172;DHT22;9718;52.200;21.052;2023-03-01T06:45:09;0.20;99.90
19172;DHT22;9718;52.200;21.052;2023-03-01T06:47:36;0.30;99.90
19172;DHT22;9718;52.200;21.052;2023-03-01T06:50:04;0.30;99.90
19172;DHT22;9718;52.200;21.052;2023-03-01T06:52:31;0.60;99.90
19172;DHT22;9718;52.200;21.052;2023-03-01T06:54:58;0.70;99.90
19172;DHT22;9718;52.200;21.052;2023-03-01T06:57:26;0.90;99.90
19172;DHT22;9718;52.200;21.052;2023-03-01T06:59:53;1.10;99.90
19172;DHT22;9718;52.200;21.052;2023-03-01T07:02:21;1.10;99.90
19172;DHT22;9718;52.200;21.052;2023-03-01T07:04:52;1.10;99.90
19172;DHT22;9718;52.200;21.052;2023-03-01T07:07:19;1.30;99.90
19172;DHT22;9718;52.200;21.052;2023-03-01T07:09:48;1.40;99.90
19172;DHT22;9718;52.200;21.052;2023-03-01T07:12:16;1.80;99.90
19172;DHT22;9718;52.200;21.052;2023-03-01T07:14:44;2.00;99.90
19172;DHT22;9718;52.200;21.052;2023-03-01T07:17:11;2.30;99.90
19172;DHT22;9718;52.200;21.052;2023-03-01T07:19:38;2.40;99.90
19172;DHT22;9718;52.200;21.052;2023-03-01T07:22:05;2.50;99.90
19172;DHT22;9718;52.200;21.052;2023-03-01T07:24:34;2.30;99.90
19172;DHT22;9718;52.200;21.052;2023-03-01T07:27:01;2.80;99.90
19172;DHT22;9718;52.200;21.052;2023-03-01T07:29:29;2.80;99.90
19172;DHT22;9718;52.200;21.052;2023-03-01T07:31:56;2.40;99.90
19172;DHT22;9718;52.200;21.052;2023-03-01T07:34:23;2.40;99.90
19172;DHT22;9718;52.200;21.052;2023-03-01T07:36:51;2.20;99.90
19172;DHT22;9718;52.200;21.052;2023-03-01T07:39:18;1.90;99.90
19172;DHT22;9718;52.200;21.052;2023-03-01T07:41:46;2.30;99.90
19172;DHT22;9718;52.200;21.052;2023-03-01T07:44:13;3.00;99.90
19172;DHT22;9718;52.200;21.052;2023-03-01T07:46:40;3.50;99.90
19172;DHT22;9718;52.200;21.052;2023-03-01T07:49:07;4.10;99.90
19172;DHT22;9718;52.200;21.052;2023-03-01T07:51:34;4.00;99.90
19172;DHT22;9718;52.200;21.052;2023-03-01T07:54:01;4.50;99.90
19172;DHT22;9718;52.200;21.052;2023-03-01T07:56:29;4.80;99.90
19172;DHT22;9718;52.200;21.052;2023-03-01T07:58:56;5.20;99.90
19172;DHT22;9718;52.200;21.052;2023-03-01T08:01:26;5.30;99.90
19172;DHT22;9718;52.200;21.052;2023-03-01T08:03:53;5.50;99.90
19172;DHT22;9718;52.200;21.052;2023-03-01T08:06:20;5.70;99.90
19172;DHT22;9718;52.200;21.052;2023-03-01T08:08:47;6.10;99.90
19172;DHT22;9718;52.200;21.052;2023-03-01T08:11:15;6.00;99.90
19172;DHT22;9718;52.200;21.052;2023-03-01T08:13:43;6.00;99.90
19172;DHT22;9718;52.200;21.052;2023-03-01T08:16:12;5.80;99.90
19172;DHT22;9718;52.200;21.052;2023-03-01T08:18:40;5.70;99.90
19172;DHT22;9718;52.200;21.052;2023-03-01T08:21:13;5.30;99.90
19172;DHT22;9718;52.200;21.052;2023-03-01T08:23:41;5.20;99.90
19172;DHT22;9718;52.200;21.052;2023-03-01T08:26:17;5.60;99.90
19172;DHT22;9718;52.200;21.052;2023-03-01T08:28:46;5.60;99.90
19172;DHT22;9718;52.200;21.052;2023-03-01T08:31:22;5.80;99.90
19172;DHT22;9718;52.200;21.052;2023-03-01T08:33:52;5.80;99.90
19172;DHT22;9718;52.200;21.052;2023-03-01T08:36:26;5.80;99.90
19172;DHT22;9718;52.200;21.052;2023-03-01T08:38:53;5.90;99.90
19172;DHT22;9718;52.200;21.052;2023-03-01T08:41:21;5.90;99.90
19172;DHT22;9718;52.200;21.052;2023-03-01T08:43:48;6.20;99.90
19172;DHT22;9718;52.200;21.052;2023-03-01T08:46:15;6.40;99.90
19172;DHT22;9718;52.200;21.052;2023-03-01T08:48:43;6.40;99.90
19172;DHT22;9718;52.200;21.052;2023-03-01T08:51:16;6.50;99.90
19172;DHT22;9718;52.200;21.052;2023-03-01T08:53:46;6.60;99.90
19172;DHT22;9718;52.200;21.052;2023-03-01T08:56:14;6.70;99.90
19172;DHT22;9718;52.200;21.052;2023-03-01T08:58:46;6.40;99.90
19172;DHT22;9718;52.200;21.052;2023-03-01T09:01:16;6.50;99.90
19172;DHT22;9718;52.200;21.052;2023-03-01T09:03:44;6.90;99.90
19172;DHT22;9718;52.200;21.052;2023-03-01T09:06:11;6.80;99.90
19172;DHT22;9718;52.200;21.052;2023-03-01T09:08:42;6.80;99.90
19172;DHT22;9718;52.200;21.052;2023-03-01T09:11:11;7.30;99.90
19172;DHT22;9718;52.200;21.052;2023-03-01T09:13:54;7.80;99.90
19172;DHT22;9718;52.200;21.052;2023-03-01T09:16:22;7.50;99.90
19172;DHT22;9718;52.200;21.052;2023-03-01T09:18:51;7.70;99.90
19172;DHT22;9718;52.200;21.052;2023-03-01T09:21:21;7.40;99.90
19172;DHT22;9718;52.200;21.052;2023-03-01T09:24:11;7.30;99.90
19172;DHT22;9718;52.200;21.052;2023-03-01T09:26:39;6.50;99.90
19172;DHT22;9718;52.200;21.052;2023-03-01T09:29:06;6.40;99.90
19172;DHT22;9718;52.200;21.052;2023-03-01T09:31:36;6.80;99.90
19172;DHT22;9718;52.200;21.052;2023-03-01T09:34:04;6.80;99.90
19172;DHT22;9718;52.200;21.052;2023-03-01T09:36:32;6.00;99.90
19172;DHT22;9718;52.200;21.052;2023-03-01T09:39:00;5.90;99.90
19172;DHT22;9718;52.200;21.052;2023-03-01T09:44:24;5.60;99.90
19172;DHT22;9718;52.200;21.052;2023-03-01T09:46:53;5.50;99.90
19172;DHT22;9718;52.200;21.052;2023-03-01T09:49:28;6.20;99.90
19172;DHT22;9718;52.200;21.052;2023-03-01T09:52:04;6.80;99.90
19172;DHT22;9718;52.200;21.052;2023-03-01T09:54:36;7.00;99.90
19172;DHT22;9718;52.200;21.052;2023-03-01T09:57:20;7.10;99.90
19172;DHT22;9718;52.200;21.052;2023-03-01T10:00:01;7.00;99.90
19172;DHT22;9718;52.200;21.052;2023-03-01T10:02:58;6.70;99.90
19172;DHT22;9718;52.200;21.052;2023-03-01T10:10:53;7.60;99.90
19172;DHT22;9718;52.200;21.052;2023-03-01T10:15:57;7.90;99.90
19172;DHT22;9718;52.200;21.052;2023-03-01T10:18:28;7.60;99.90
19172;DHT22;9718;52.200;21.052;2023-03-01T10:21:01;7.70;99.90
19172;DHT22;9718;52.200;21.052;2023-03-01T10:23:31;7.40;99.90
19172;DHT22;9718;52.200;21.052;2023-03-01T10:26:22;7.90;99.90
19172;DHT22;9718;52.200;21.052;2023-03-01T10:31:32;7.90;99.90
19172;DHT22;9718;52.200;21.052;2023-03-01T10:34:19;7.70;99.90
19172;DHT22;9718;52.200;21.052;2023-03-01T10:36:51;7.80;99.90
19172;DHT22;9718;52.200;21.052;2023-03-01T10:39:22;8.10;99.90
19172;DHT22;9718;52.200;21.052;2023-03-01T10:44:46;8.40;99.90
19172;DHT22;9718;52.200;21.052;2023-03-01T10:47:16;8.30;99.90
19172;DHT22;9718;52.200;21.052;2023-03-01T10:50:01;8.60;99.90
19172;DHT22;9718;52.200;21.052;2023-03-01T10:52:34;8.50;99.90
19172;DHT22;9718;52.200;21.052;2023-03-01T10:55:36;8.30;99.90
19172;DHT22;9718;52.200;21.052;2023-03-01T10:58:16;8.70;99.90
19172;DHT22;9718;52.200;21.052;2023-03-01T11:01:03;8.50;99.90
19172;DHT22;9718;52.200;21.052;2023-03-01T11:03:36;8.80;99.90
19172;DHT22;9718;52.200;21.052;2023-03-01T11:08:44;9.40;99.90
19172;DHT22;9718;52.200;21.052;2023-03-01T11:11:30;9.50;99.90
19172;DHT22;9718;52.200;21.052;2023-03-01T11:17:29;9.00;99.90
19172;DHT22;9718;52.200;21.052;2023-03-01T11:22:55;8.80;99.90
19172;DHT22;9718;52.200;21.052;2023-03-01T11:25:32;9.00;99.90
19172;DHT22;9718;52.200;21.052;2023-03-01T11:28:02;9.00;99.90
19172;DHT22;9718;52.200;21.052;2023-03-01T11:30:39;8.90;99.90
19172;DHT22;9718;52.200;21.052;2023-03-01T11:35:41;8.20;99.90
19172;DHT22;9718;52.200;21.052;2023-03-01T11:38:36;7.90;99.90
19172;DHT22;9718;52.200;21.052;2023-03-01T11:43:59;8.20;99.90
19172;DHT22;9718;52.200;21.052;2023-03-01T11:46:49;8.60;99.90
19172;DHT22;9718;52.200;21.052;2023-03-01T12:00:23;9.10;99.90
19172;DHT22;9718;52.200;21.052;2023-03-01T12:08:23;8.50;99.90
19172;DHT22;9718;52.200;21.052;2023-03-01T12:10:57;9.00;99.90
19172;DHT22;9718;52.200;21.052;2023-03-01T12:17:06;8.90;99.90
19172;DHT22;9718;52.200;21.052;2023-03-01T12:22:46;9.30;99.90
19172;DHT22;9718;52.200;21.052;2023-03-01T12:25:28;9.00;99.90
19172;DHT22;9718;52.200;21.052;2023-03-01T12:28:15;9.10;99.90
19172;DHT22;9718;52.200;21.052;2023-03-01T12:34:34;8.90;99.90
19172;DHT22;9718;52.200;21.052;2023-03-01T12:46:44;8.80;99.90
19172;DHT22;9718;52.200;21.052;2023-03-01T12:49:33;9.10;99.90
19172;DHT22;9718;52.200;21.052;2023-03-01T12:52:54;8.90;99.90
19172;DHT22;9718;52.200;21.052;2023-03-01T12:55:29;9.20;99.90
19172;DHT22;9718;52.200;21.052;2023-03-01T13:03:38;9.50;99.90
19172;DHT22;9718;52.200;21.052;2023-03-01T13:06:44;9.10;99.90
19172;DHT22;9718;52.200;21.052;2023-03-01T13:17:51;8.60;99.90
19172;DHT22;9718;52.200;21.052;2023-03-01T13:20:23;8.90;99.90
19172;DHT22;9718;52.200;21.052;2023-03-01T13:25:33;8.50;99.90
19172;DHT22;9718;52.200;21.052;2023-03-01T13:34:02;8.90;99.90
19172;DHT22;9718;52.200;21.052;2023-03-01T13:39:05;8.80;99.90
19172;DHT22;9718;52.200;21.052;2023-03-01T13:41:54;8.80;99.90
19172;DHT22;9718;52.200;21.052;2023-03-01T13:44:25;8.70;99.90
19172;DHT22;9718;52.200;21.052;2023-03-01T13:49:41;8.60;99.90
19172;DHT22;9718;52.200;21.052;2023-03-01T13:52:43;8.60;99.90
19172;DHT22;9718;52.200;21.052;2023-03-01T13:57:44;8.90;99.90
19172;DHT22;9718;52.200;21.052;2023-03-01T14:00:34;8.70;99.90
19172;DHT22;9718;52.200;21.052;2023-03-01T14:03:08;8.50;99.90
19172;DHT22;9718;52.200;21.052;2023-03-01T14:05:37;8.40;99.90
19172;DHT22;9718;52.200;21.052;2023-03-01T14:08:13;8.70;99.90
19172;DHT22;9718;52.200;21.052;2023-03-01T14:10:54;8.70;99.90
19172;DHT22;9718;52.200;21.052;2023-03-01T14:16:30;8.60;99.90
19172;DHT22;9718;52.200;21.052;2023-03-01T14:19:15;8.60;99.90
19172;DHT22;9718;52.200;21.052;2023-03-01T14:22:22;8.60;99.90
19172;DHT22;9718;52.200;21.052;2023-03-01T14:25:01;8.60;99.90
19172;DHT22;9718;52.200;21.052;2023-03-01T14:27:35;8.50;99.90
19172;DHT22;9718;52.200;21.052;2023-03-01T14:33:03;8.30;99.90
19172;DHT22;9718;52.200;21.052;2023-03-01T14:35:55;8.10;99.90
19172;DHT22;9718;52.200;21.052;2023-03-01T14:38:55;8.00;99.90
19172;DHT22;9718;52.200;21.052;2023-03-01T14:41:24;7.90;99.90
19172;DHT22;9718;52.200;21.052;2023-03-01T14:43:57;7.80;99.90
19172;DHT22;9718;52.200;21.052;2023-03-01T14:46:39;7.80;99.90
19172;DHT22;9718;52.200;21.052;2023-03-01T14:49:19;7.70;99.90
19172;DHT22;9718;52.200;21.052;2023-03-01T14:51:59;7.60;99.90
19172;DHT22;9718;52.200;21.052;2023-03-01T14:54:28;7.50;99.90
19172;DHT22;9718;52.200;21.052;2023-03-01T14:57:00;7.40;99.90
19172;DHT22;9718;52.200;21.052;2023-03-01T14:59:28;7.30;99.90
19172;DHT22;9718;52.200;21.052;2023-03-01T15:01:57;7.20;99.90
19172;DHT22;9718;52.200;21.052;2023-03-01T15:04:26;7.10;99.90
19172;DHT22;9718;52.200;21.052;2023-03-01T15:06:57;7.20;99.90
19172;DHT22;9718;52.200;21.052;2023-03-01T15:09:34;7.10;99.90
19172;DHT22;9718;52.200;21.052;2023-03-01T15:14:52;7.00;99.90
19172;DHT22;9718;52.200;21.052;2023-03-01T15:17:37;7.00;99.90
19172;DHT22;9718;52.200;21.052;2023-03-01T15:20:17;6.80;99.90
19172;DHT22;9718;52.200;21.052;2023-03-01T15:22:45;6.70;99.90
19172;DHT22;9718;52.200;21.052;2023-03-01T15:25:19;6.60;99.90
19172;DHT22;9718;52.200;21.052;2023-03-01T15:27:48;6.60;99.90
19172;DHT22;9718;52.200;21.052;2023-03-01T15:32:46;6.60;99.90
19172;DHT22;9718;52.200;21.052;2023-03-01T15:38:00;6.60;99.90
19172;DHT22;9718;52.200;21.052;2023-03-01T15:40:29;6.70;99.90
19172;DHT22;9718;52.200;21.052;2023-03-01T15:43:04;6.70;99.90
19172;DHT22;9718;52.200;21.052;2023-03-01T15:45:32;6.80;99.90
19172;DHT22;9718;52.200;21.052;2023-03-01T15:48:19;6.90;99.90
19172;DHT22;9718;52.200;21.052;2023-03-01T15:50:59;7.10;99.90
19172;DHT22;9718;52.200;21.052;2023-03-01T15:53:28;7.00;99.90
19172;DHT22;9718;52.200;21.052;2023-03-01T15:55:55;6.90;99.90
19172;DHT22;9718;52.200;21.052;2023-03-01T15:58:24;6.80;99.90
19172;DHT22;9718;52.200;21.052;2023-03-01T16:00:52;6.80;99.90
19172;DHT22;9718;52.200;21.052;2023-03-01T16:03:28;6.70;99.90
19172;DHT22;9718;52.200;21.052;2023-03-01T16:05:56;6.70;99.90
19172;DHT22;9718;52.200;21.052;2023-03-01T16:08:23;6.50;99.90
19172;DHT22;9718;52.200;21.052;2023-03-01T16:10:51;6.40;99.90
19172;DHT22;9718;52.200;21.052;2023-03-01T16:13:18;6.20;99.90
19172;DHT22;9718;52.200;21.052;2023-03-01T16:15:46;6.10;99.90
19172;DHT22;9718;52.200;21.052;2023-03-01T16:18:13;6.00;99.90
19172;DHT22;9718;52.200;21.052;2023-03-01T16:20:41;5.90;99.90
19172;DHT22;9718;52.200;21.052;2023-03-01T16:23:10;5.80;99.90
19172;DHT22;9718;52.200;21.052;2023-03-01T16:25:37;5.70;99.90
19172;DHT22;9718;52.200;21.052;2023-03-01T16:28:06;5.70;99.90
19172;DHT22;9718;52.200;21.052;2023-03-01T16:30:38;5.60;99.90
19172;DHT22;9718;52.200;21.052;2023-03-01T16:33:06;5.60;99.90
19172;DHT22;9718;52.200;21.052;2023-03-01T16:35:55;5.50;99.90
19172;DHT22;9718;52.200;21.052;2023-03-01T16:38:26;5.40;99.90
19172;DHT22;9718;52.200;21.052;2023-03-01T16:40:54;5.30;99.90
19172;DHT22;9718;52.200;21.052;2023-03-01T16:43:21;5.30;99.90
19172;DHT22;9718;52.200;21.052;2023-03-01T16:45:48;5.20;99.90
19172;DHT22;9718;52.200;21.052;2023-03-01T16:48:16;5.10;99.90
19172;DHT22;9718;52.200;21.052;2023-03-01T16:50:43;5.10;99.90
19172;DHT22;9718;52.200;21.052;2023-03-01T16:53:11;5.10;99.90
19172;DHT22;9718;52.200;21.052;2023-03-01T16:55:38;5.00;99.90
19172;DHT22;9718;52.200;21.052;2023-03-01T16:58:12;4.90;99.90
19172;DHT22;9718;52.200;21.052;2023-03-01T17:00:39;5.00;99.90
19172;DHT22;9718;52.200;21.052;2023-03-01T17:03:07;5.00;99.90
19172;DHT22;9718;52.200;21.052;2023-03-01T17:05:34;5.00;99.90
19172;DHT22;9718;52.200;21.052;2023-03-01T17:08:01;4.90;99.90
19172;DHT22;9718;52.200;21.052;2023-03-01T17:10:28;4.80;99.90
19172;DHT22;9718;52.200;21.052;2023-03-01T17:12:56;4.70;99.90
19172;DHT22;9718;52.200;21.052;2023-03-01T17:15:23;4.60;99.90
19172;DHT22;9718;52.200;21.052;2023-03-01T17:17:51;4.60;99.90
19172;DHT22;9718;52.200;21.052;2023-03-01T17:20:18;4.50;99.90
19172;DHT22;9718;52.200;21.052;2023-03-01T17:22:45;4.40;99.90
19172;DHT22;9718;52.200;21.052;2023-03-01T17:25:12;4.50;99.90
19172;DHT22;9718;52.200;21.052;2023-03-01T17:27:39;4.40;99.90
19172;DHT22;9718;52.200;21.052;2023-03-01T17:30:09;4.30;99.90
19172;DHT22;9718;52.200;21.052;2023-03-01T17:32:37;4.20;99.90
19172;DHT22;9718;52.200;21.052;2023-03-01T17:35:05;4.20;99.90
19172;DHT22;9718;52.200;21.052;2023-03-01T17:37:34;4.10;99.90
19172;DHT22;9718;52.200;21.052;2023-03-01T17:40:02;4.00;99.90
19172;DHT22;9718;52.200;21.052;2023-03-01T17:42:30;4.00;99.90
19172;DHT22;9718;52.200;21.052;2023-03-01T17:44:57;3.90;99.90
19172;DHT22;9718;52.200;21.052;2023-03-01T17:47:26;3.80;99.90
19172;DHT22;9718;52.200;21.052;2023-03-01T17:49:53;3.70;99.90
19172;DHT22;9718;52.200;21.052;2023-03-01T17:52:21;3.60;99.90
19172;DHT22;9718;52.200;21.052;2023-03-01T17:54:49;3.60;99.90
19172;DHT22;9718;52.200;21.052;2023-03-01T17:57:17;3.70;99.90
19172;DHT22;9718;52.200;21.052;2023-03-01T17:59:44;3.70;99.90
19172;DHT22;9718;52.200;21.052;2023-03-01T18:02:12;3.60;99.90
19172;DHT22;9718;52.200;21.052;2023-03-01T18:04:39;3.60;99.90
19172;DHT22;9718;52.200;21.052;2023-03-01T18:07:06;3.60;99.90